Time;durP1;ratioP1;P1;durP2;ratioP2;P2;SDS_P1;SDS_P2;PMS_P1;PMS_P2;Temp;Humidity;BMP_temperature;BMP_pressure;BME280_temperature;BME280_humidity;BME280_pressure;Samples;Min_cycle;Max_cycle;Signal;HPM_P1;HPM_P2
2022/03/21 00:01:16;;;;;;;12.17;3.73;;;;;;;10.07;39.44;101039.03;4993987;28;20501;-69
2022/03/21 00:03:42;;;;;;;18.53;3.63;;;;;;;10.04;39.24;101046.38;5010082;28;20048;-70
2022/03/21 00:06:08;;;;;;;18.27;3.70;;;;;;;10.01;39.39;101044.81;4977600;28;20057;-72
2022/03/21 00:08:34;;;;;;;15.67;3.30;;;;;;;9.97;39.65;101038.06;4961375;28;20136;-72
2022/03/21 00:11:00;;;;;;;13.10;3.60;;;;;;;9.85;39.54;101027.53;5009517;28;20497;-72
2022/03/21 00:13:30;;;;;;;16.53;3.10;;;;;;;9.95;39.81;101039.97;4993966;28;20533;-70
2022/03/21 00:15:57;;;;;;;11.77;3.97;;;;;;;9.90;39.80;101043.97;5026131;28;20046;-70
2022/03/21 00:18:27;;;;;;;11.13;3.10;;;;;;;9.83;40.20;101040.06;5009997;28;20057;-70
2022/03/21 00:20:55;;;;;;;12.67;3.47;;;;;;;9.94;39.92;101040.94;4977478;28;20108;-68
2022/03/21 00:23:22;;;;;;;15.57;3.60;;;;;;;9.90;39.93;101041.31;4993684;28;20135;-66
2022/03/21 00:25:48;;;;;;;15.60;3.53;;;;;;;9.80;40.10;101029.72;4993917;28;20041;-70
2022/03/21 00:28:17;;;;;;;13.93;3.50;;;;;;;9.78;40.40;101027.16;4993758;28;20551;-69
2022/03/21 00:30:44;;;;;;;10.07;3.07;;;;;;;9.82;40.17;101018.03;5009937;28;20515;-68
2022/03/21 00:33:11;;;;;;;12.60;3.53;;;;;;;9.69;40.40;101006.66;5009783;28;20037;-70
2022/03/21 00:35:37;;;;;;;17.47;3.53;;;;;;;9.79;40.35;101018.25;4993404;28;20424;-69
2022/03/21 00:38:04;;;;;;;12.77;2.93;;;;;;;9.83;40.13;101016.19;4993249;28;20058;-69
2022/03/21 00:40:30;;;;;;;13.20;3.37;;;;;;;9.72;40.25;101014.38;4993457;28;20096;-69
2022/03/21 00:42:57;;;;;;;13.37;3.67;;;;;;;9.70;40.29;101002.22;5009588;28;20517;-69
2022/03/21 00:45:26;;;;;;;7.67;2.73;;;;;;;9.64;40.52;101000.88;4993430;28;20072;-69
2022/03/21 00:47:53;;;;;;;9.90;3.20;;;;;;;9.75;40.40;101006.19;4961534;28;20041;-67
2022/03/21 00:50:19;;;;;;;12.37;4.00;;;;;;;9.69;40.63;101004.00;4993361;28;20042;-70
2022/03/21 00:52:53;;;;;;;11.90;3.50;;;;;;;9.74;40.64;101004.50;4993454;28;20104;-69
2022/03/21 00:55:21;;;;;;;11.57;2.90;;;;;;;9.69;40.57;101014.63;5010058;28;20124;-71
2022/03/21 00:57:46;;;;;;;11.27;3.53;;;;;;;9.62;40.71;101008.13;4976868;28;20046;-69
2022/03/21 01:00:19;;;;;;;6.93;2.87;;;;;;;9.65;40.80;100989.31;5009440;28;20500;-69
2022/03/21 01:02:45;;;;;;;19.43;4.77;;;;;;;9.57;40.93;101018.22;5009656;28;20045;-69
2022/03/21 01:05:12;;;;;;;17.80;4.27;;;;;;;9.62;40.71;101017.88;4992986;28;20045;-70
2022/03/21 01:07:38;;;;;;;13.40;3.03;;;;;;;9.66;40.82;101016.66;5010526;28;20056;-70
2022/03/21 01:10:06;;;;;;;10.57;3.07;;;;;;;9.62;40.91;101016.06;5009593;28;20181;-70
2022/03/21 01:12:32;;;;;;;16.00;3.90;;;;;;;9.56;40.88;101018.34;5009658;28;20052;-70
2022/03/21 01:14:59;;;;;;;12.47;3.17;;;;;;;9.57;41.16;101025.34;4992609;28;20549;-69
2022/03/21 01:17:25;;;;;;;12.33;3.67;;;;;;;9.58;40.86;101019.09;5009306;28;20405;-70
2022/03/21 01:19:51;;;;;;;16.93;4.10;;;;;;;9.42;41.50;101023.84;4993100;28;20056;-70
2022/03/21 01:22:17;;;;;;;13.73;3.33;;;;;;;9.48;41.15;101015.44;4993872;28;20038;-69
2022/03/21 01:24:43;;;;;;;16.73;3.57;;;;;;;9.45;41.20;101005.06;4980550;28;20041;-69
2022/03/21 01:27:09;;;;;;;13.97;3.80;;;;;;;9.48;41.12;101008.34;5013578;28;20042;-72
2022/03/21 01:29:35;;;;;;;15.73;3.43;;;;;;;9.45;41.21;101008.56;4996694;28;20092;-67
2022/03/21 01:32:01;;;;;;;11.50;3.77;;;;;;;9.32;41.63;100981.28;5012943;28;20470;-68
2022/03/21 01:34:27;;;;;;;12.67;3.97;;;;;;;9.42;41.27;101000.00;5012802;28;20067;-69
2022/03/21 01:36:53;;;;;;;14.57;3.43;;;;;;;9.42;41.28;101000.00;5014293;28;20159;-70
2022/03/21 01:39:19;;;;;;;12.30;3.33;;;;;;;9.36;41.35;100998.66;4996522;28;20076;-69
2022/03/21 01:41:45;;;;;;;15.90;3.43;;;;;;;9.40;41.64;101004.56;4996450;28;20046;-69
2022/03/21 01:44:11;;;;;;;16.40;3.83;;;;;;;9.34;41.64;101010.34;4996461;28;20049;-70
2022/03/21 01:46:39;;;;;;;10.70;3.23;;;;;;;9.45;41.56;101005.91;4996526;28;20099;-70
2022/03/21 01:49:06;;;;;;;12.63;3.40;;;;;;;9.30;41.57;100999.13;5012869;28;20116;-70
2022/03/21 01:51:33;;;;;;;8.03;3.00;;;;;;;9.18;42.02;100994.75;4996240;28;20048;-73
2022/03/21 01:56:46;;;;;;;12.87;3.43;;;;;;;9.31;41.70;100990.22;4979679;28;20057;-72
2022/03/21 01:59:15;;;;;;;9.63;2.80;;;;;;;9.30;41.85;100993.81;5012718;28;20050;-72
2022/03/21 02:01:41;;;;;;;9.60;3.60;;;;;;;9.25;41.88;100987.19;4980024;28;20501;-72
2022/03/21 02:04:10;;;;;;;12.80;3.67;;;;;;;9.34;41.99;101005.03;4996074;28;20053;-72
2022/03/21 02:06:36;;;;;;;10.10;3.30;;;;;;;9.16;41.82;101012.59;5012499;28;20178;-69
2022/03/21 02:09:05;;;;;;;11.33;3.07;;;;;;;9.15;42.15;101002.09;5012490;28;20057;-70
2022/03/21 02:11:32;;;;;;;13.37;3.90;;;;;;;9.12;42.26;101016.41;4996229;28;20045;-69
2022/03/21 02:14:00;;;;;;;9.03;3.50;;;;;;;9.15;41.89;101018.84;4964268;28;20045;-69
2022/03/21 02:16:28;;;;;;;16.70;3.60;;;;;;;9.16;42.18;101019.69;5014587;28;20136;-70
2022/03/21 02:18:58;;;;;;;13.67;3.87;;;;;;;9.08;42.30;101017.63;5012657;28;20049;-70
2022/03/21 02:21:57;;;;;;;11.17;3.23;;;;;;;9.22;42.16;101013.91;5012688;28;20041;-69
2022/03/21 02:24:30;;;;;;;13.25;3.20;;;;;;;8.96;42.38;101005.28;5012690;28;20054;-69
2022/03/21 02:26:58;;;;;;;13.27;3.90;;;;;;;9.13;42.37;101004.88;5012329;28;20061;-69
2022/03/21 02:29:26;;;;;;;12.30;3.20;;;;;;;9.08;42.54;101007.03;4996276;28;20057;-69
2022/03/21 02:31:55;;;;;;;12.97;3.50;;;;;;;9.03;42.68;100990.59;5012032;28;20045;-69
2022/03/21 02:34:25;;;;;;;12.47;3.47;;;;;;;9.05;42.45;101004.59;5011893;28;20061;-70
2022/03/21 02:37:00;;;;;;;11.97;3.37;;;;;;;9.11;42.28;101004.13;4995404;28;20449;-69
2022/03/21 02:39:27;;;;;;;9.67;3.50;;;;;;;8.99;42.30;101010.38;5012203;28;20394;-71
2022/03/21 02:41:53;;;;;;;16.90;4.00;;;;;;;8.83;42.70;101009.81;4979592;28;20046;-70
2022/03/21 02:44:21;;;;;;;13.67;3.90;;;;;;;8.77;43.03;101018.19;4979512;28;20128;-69
2022/03/21 02:46:47;;;;;;;14.60;3.17;;;;;;;8.81;42.53;101013.53;5011808;28;20042;-69
2022/03/21 02:49:16;;;;;;;13.90;3.57;;;;;;;8.93;42.74;101009.97;5011762;28;20095;-70
2022/03/21 02:51:43;;;;;;;13.97;3.50;;;;;;;8.89;42.70;101011.16;4995399;28;20069;-69
2022/03/21 02:54:09;;;;;;;11.77;3.40;;;;;;;8.78;42.83;101005.81;4995193;28;20053;-71
2022/03/21 02:56:35;;;;;;;16.50;3.87;;;;;;;8.79;43.07;101008.34;4995330;28;20065;-71
2022/03/21 02:59:01;;;;;;;10.67;3.20;;;;;;;8.73;43.00;101005.31;4995130;28;20052;-70
2022/03/21 03:01:27;;;;;;;11.63;2.77;;;;;;;8.75;42.95;101014.00;5011886;28;20050;-71
2022/03/21 03:03:53;;;;;;;12.87;3.53;;;;;;;8.73;42.68;101010.59;4995066;28;20049;-71
2022/03/21 03:06:19;;;;;;;11.00;3.40;;;;;;;8.74;43.04;101006.97;4963025;28;20048;-70
2022/03/21 03:08:45;;;;;;;8.80;3.37;;;;;;;8.74;42.93;101014.91;4994936;28;20084;-69
2022/03/21 03:11:12;;;;;;;9.40;3.43;;;;;;;8.69;42.76;100999.38;4995078;28;20041;-71
2022/03/21 03:13:38;;;;;;;15.93;3.83;;;;;;;8.67;43.33;101003.09;5011243;28;20069;-69
2022/03/21 03:16:04;;;;;;;13.50;3.40;;;;;;;8.73;43.21;101011.44;4994934;28;20579;-69
2022/03/21 03:18:30;;;;;;;13.00;3.53;;;;;;;8.64;43.21;101017.44;5011459;28;20073;-66
2022/03/21 03:20:57;;;;;;;15.23;4.13;;;;;;;8.72;43.13;101017.69;4994999;28;20077;-69
2022/03/21 03:23:25;;;;;;;17.00;4.17;;;;;;;8.69;43.31;101007.31;5011071;28;20461;-71
2022/03/21 03:25:57;;;;;;;11.57;3.17;;;;;;;8.73;43.55;100997.34;5012076;28;20038;-69
2022/03/21 03:28:24;;;;;;;10.93;3.60;;;;;;;8.58;43.47;101007.25;4978185;28;20240;-70
2022/03/21 03:30:50;;;;;;;15.63;3.73;;;;;;;8.57;43.59;101000.28;4994550;28;20061;-69
2022/03/21 03:33:16;;;;;;;11.00;3.80;;;;;;;8.55;43.55;101003.03;5011125;28;20100;-71
2022/03/21 03:35:42;;;;;;;13.53;3.53;;;;;;;8.59;43.56;101004.50;4994388;28;20053;-69
2022/03/21 03:38:07;;;;;;;12.93;3.67;;;;;;;8.55;43.36;100994.25;4994079;28;20058;-70
2022/03/21 03:40:33;;;;;;;12.70;3.83;;;;;;;8.60;43.30;100997.41;5010718;28;20565;-69
2022/03/21 03:42:59;;;;;;;15.27;3.90;;;;;;;8.61;43.35;100988.50;4994596;28;20046;-71
2022/03/21 03:45:25;;;;;;;17.63;4.07;;;;;;;8.44;43.12;100965.91;4993719;28;20413;-70
2022/03/21 03:47:52;;;;;;;11.47;3.90;;;;;;;8.72;43.09;100999.16;5010440;28;20034;-70
2022/03/21 03:50:18;;;;;;;17.20;3.93;;;;;;;8.68;43.26;100992.41;5010453;28;20045;-71
2022/03/21 03:52:46;;;;;;;15.70;4.07;;;;;;;8.63;43.28;100991.03;4994125;28;20054;-69
2022/03/21 03:55:17;;;;;;;17.43;3.97;;;;;;;8.67;43.19;100971.31;4994106;28;20527;-70
2022/03/21 03:57:49;;;;;;;19.57;3.77;;;;;;;8.77;43.16;100982.91;4993907;28;20033;-69
2022/03/21 04:00:16;;;;;;;18.87;4.60;;;;;;;8.71;43.26;100989.53;5010569;28;20100;-71
2022/03/21 04:05:30;;;;;;;12.93;4.77;;;;;;;8.74;42.99;100983.13;5010415;28;20034;-69
2022/03/21 04:07:56;;;;;;;15.83;5.37;;;;;;;8.61;43.20;100987.66;4993610;28;20084;-69
2022/03/21 04:10:22;;;;;;;16.47;5.67;;;;;;;8.41;43.30;100960.84;5010357;28;20068;-69
2022/03/21 04:12:51;;;;;;;22.53;6.13;;;;;;;8.58;43.46;100978.13;5010272;28;20042;-73
2022/03/21 04:15:18;;;;;;;13.50;4.60;;;;;;;8.54;43.48;100974.88;4961672;28;20092;-76
2022/03/21 04:17:44;;;;;;;15.37;4.70;;;;;;;8.55;43.40;100981.00;5009995;28;20038;-76
2022/03/21 04:20:11;;;;;;;12.40;4.27;;;;;;;8.62;43.59;100976.09;5010335;28;20061;-73
2022/03/21 04:22:37;;;;;;;15.70;4.13;;;;;;;8.61;43.56;100985.84;4985526;28;20128;-74
2022/03/21 04:25:05;;;;;;;17.63;4.57;;;;;;;8.67;43.50;100990.72;4991985;28;20045;-75
2022/03/21 04:27:35;;;;;;;13.30;4.03;;;;;;;8.65;43.37;100992.63;4992807;28;20073;-74
2022/03/21 04:30:01;;;;;;;16.60;5.03;;;;;;;8.55;43.46;100978.34;5024782;28;20087;-75
2022/03/21 04:32:29;;;;;;;13.20;4.50;;;;;;;8.61;43.57;100988.50;4992692;28;20509;-76
2022/03/21 04:34:55;;;;;;;15.13;4.23;;;;;;;8.64;43.39;100979.50;5009019;28;20077;-73
2022/03/21 04:37:21;;;;;;;14.53;4.40;;;;;;;8.67;43.37;100982.78;4976036;28;20053;-70
2022/03/21 04:39:46;;;;;;;16.53;5.00;;;;;;;8.65;43.39;100981.16;4992489;28;20390;-73
2022/03/21 04:42:12;;;;;;;17.00;4.73;;;;;;;8.72;43.15;100990.38;4959825;28;20038;-68
2022/03/21 04:44:40;;;;;;;13.97;3.80;;;;;;;8.91;43.08;100993.31;5000694;28;20046;-70
2022/03/21 04:47:07;;;;;;;14.30;4.33;;;;;;;8.83;42.92;100988.59;4984432;28;20048;-71
2022/03/21 04:49:33;;;;;;;15.30;4.60;;;;;;;8.89;43.09;100987.31;4992715;28;20070;-70
2022/03/21 04:51:59;;;;;;;20.90;4.67;;;;;;;8.89;42.93;100987.31;5024978;28;20049;-71
2022/03/21 04:54:28;;;;;;;13.73;4.00;;;;;;;8.88;42.76;100975.88;4992484;28;20696;-75
2022/03/21 04:56:54;;;;;;;17.43;4.33;;;;;;;9.04;42.78;100980.88;5008684;28;20041;-73
2022/03/21 04:59:20;;;;;;;15.53;4.60;;;;;;;9.06;42.46;100974.47;4991025;28;20087;-73
2022/03/21 05:01:47;;;;;;;18.57;4.90;;;;;;;9.11;42.38;100979.44;4976016;28;20042;-74
2022/03/21 05:04:13;;;;;;;15.27;4.33;;;;;;;9.19;42.36;100971.75;4975917;28;20046;-73
2022/03/21 05:06:39;;;;;;;14.70;4.30;;;;;;;9.21;42.13;100973.31;5023275;28;20563;-72
2022/03/21 05:09:06;;;;;;;13.20;4.33;;;;;;;9.35;41.89;100981.06;4992249;28;20038;-72
2022/03/21 05:11:32;;;;;;;12.93;4.40;;;;;;;9.36;41.98;100984.56;4992296;28;20042;-73
2022/03/21 05:13:58;;;;;;;11.77;4.23;;;;;;;9.34;41.84;100986.47;4959665;28;20516;-73
2022/03/21 05:16:24;;;;;;;17.77;4.17;;;;;;;9.38;41.91;100993.25;4992340;28;20056;-74
2022/03/21 05:18:50;;;;;;;13.90;4.00;;;;;;;9.46;41.82;100986.38;4992137;28;20521;-75
2022/03/21 05:21:17;;;;;;;20.30;4.60;;;;;;;9.35;41.65;100953.72;4992276;28;20107;-75
2022/03/21 05:31:56;;;;;;;17.33;4.87;;;;;;;9.75;41.11;100984.97;4978122;28;20050;-73
2022/03/21 05:37:06;;;;;;;17.03;4.20;;;;;;;9.87;40.75;100984.00;4975872;28;20058;-73
2022/03/21 05:39:32;;;;;;;16.43;5.20;;;;;;;9.95;40.65;100978.94;4976501;28;20053;-71
2022/03/21 05:41:58;;;;;;;9.87;4.13;;;;;;;10.02;40.22;100984.59;5008120;28;20096;-71
2022/03/21 05:44:24;;;;;;;15.53;4.30;;;;;;;10.16;40.03;100987.88;4975444;28;20041;-72
2022/03/21 05:46:50;;;;;;;12.57;3.80;;;;;;;10.24;39.84;100990.75;4976015;28;20103;-72
2022/03/21 05:49:17;;;;;;;14.60;4.80;;;;;;;10.34;39.78;100982.03;5008304;28;20056;-72
2022/03/21 05:51:43;;;;;;;26.07;4.90;;;;;;;10.36;39.38;100972.16;5008349;28;20129;-72
2022/03/21 05:54:13;;;;;;;12.57;4.50;;;;;;;10.83;38.85;100990.34;4959522;28;20056;-72
2022/03/21 05:56:40;;;;;;;18.17;4.57;;;;;;;11.14;38.42;101003.63;5024748;28;20497;-71
2022/03/21 06:01:52;;;;;;;9.93;4.28;;;;;;;11.80;36.73;100986.44;5007881;28;20049;-72
2022/03/21 06:04:19;;;;;;;16.50;5.05;;;;;;;12.20;36.24;101013.06;4991112;28;20140;-73
2022/03/21 06:06:45;;;;;;;12.20;4.10;;;;;;;12.24;35.73;101001.19;4991846;28;20421;-73
2022/03/21 06:09:11;;;;;;;13.02;4.03;;;;;;;12.37;35.49;101004.44;5026924;28;20072;-72
2022/03/21 06:11:37;;;;;;;13.05;4.32;;;;;;;12.33;35.37;101001.19;5011100;28;20042;-73
2022/03/21 06:14:04;;;;;;;15.18;4.60;;;;;;;12.41;35.44;101009.34;5011244;28;20050;-74
2022/03/21 06:16:33;;;;;;;16.45;4.65;;;;;;;12.40;35.12;101010.34;5011422;28;20076;-76
2022/03/21 06:19:00;;;;;;;18.15;4.72;;;;;;;12.31;35.35;101004.97;5010997;28;20497;-74
2022/03/21 06:21:28;;;;;;;14.20;4.95;;;;;;;12.42;35.25;101005.72;4995128;28;20045;-74
2022/03/21 06:23:54;;;;;;;12.52;4.68;;;;;;;12.41;34.88;101005.88;4995236;28;20137;-72
2022/03/21 06:26:22;;;;;;;14.15;4.03;;;;;;;12.50;34.68;101000.53;5028064;28;20152;-73
2022/03/21 06:28:48;;;;;;;23.02;4.70;;;;;;;12.57;34.62;100992.84;4994995;28;20041;-72
2022/03/21 06:31:14;;;;;;;15.65;4.88;;;;;;;12.55;34.38;100978.78;4995212;28;20066;-74
2022/03/21 06:33:40;;;;;;;17.60;4.22;;;;;;;12.80;34.05;100994.28;4994638;28;20520;-73
2022/03/21 06:36:07;;;;;;;14.02;4.20;;;;;;;12.90;33.81;100985.28;4994711;28;20119;-75
2022/03/21 06:38:33;;;;;;;19.02;5.22;;;;;;;13.04;33.59;100992.91;5011024;28;20112;-74
2022/03/21 06:40:59;;;;;;;15.25;4.25;;;;;;;13.19;33.30;100990.66;4978577;28;20481;-74
2022/03/21 06:43:27;;;;;;;18.75;4.72;;;;;;;13.30;33.10;100993.16;4994782;28;20052;-74
2022/03/21 06:45:54;;;;;;;18.38;5.00;;;;;;;13.46;32.94;100996.94;5011174;28;20100;-68
2022/03/21 06:48:22;;;;;;;17.20;4.53;;;;;;;13.60;32.37;100998.31;5011108;28;20053;-69
2022/03/21 06:50:53;;;;;;;13.43;4.45;;;;;;;13.50;32.40;100971.63;4995160;28;20096;-73
2022/03/21 06:53:19;;;;;;;13.98;4.20;;;;;;;13.77;32.06;100988.69;4995708;28;20049;-68
2022/03/21 06:55:48;;;;;;;24.27;7.07;;;;;;;13.89;31.57;100993.72;4994912;28;20394;-68
2022/03/21 06:58:14;;;;;;;16.38;3.75;;;;;;;14.01;31.24;100997.88;4994940;28;20108;-68
2022/03/21 07:00:44;;;;;;;13.90;4.03;;;;;;;14.14;30.85;100982.38;5011164;28;20060;-67
2022/03/21 07:03:11;;;;;;;13.93;3.95;;;;;;;14.28;30.75;100994.44;4994566;28;20136;-66
2022/03/21 07:05:38;;;;;;;17.48;3.78;;;;;;;14.45;30.30;100988.28;4994906;28;20046;-67
2022/03/21 07:08:06;;;;;;;14.60;3.90;;;;;;;14.56;30.11;100985.41;5010634;28;20061;-70
2022/03/21 07:10:34;;;;;;;15.70;4.40;;;;;;;14.75;29.97;100985.25;5010592;28;20045;-72
2022/03/21 07:13:06;;;;;;;24.35;4.32;;;;;;;14.86;29.70;100980.53;4994503;28;20045;-66
2022/03/21 07:15:32;;;;;;;11.35;4.18;;;;;;;15.07;29.41;100988.22;5011978;28;20038;-68
2022/03/21 07:17:58;;;;;;;14.77;3.92;;;;;;;15.31;28.72;100975.06;5010071;28;20050;-66
2022/03/21 07:20:27;;;;;;;19.13;4.25;;;;;;;15.53;28.33;100981.78;5009407;28;20116;-66
2022/03/21 07:22:58;;;;;;;14.70;3.90;;;;;;;15.87;28.00;100980.81;4994037;28;20064;-68
2022/03/21 07:25:25;;;;;;;16.30;4.07;;;;;;;16.11;27.12;100970.22;4993775;28;20045;-67
2022/03/21 07:27:51;;;;;;;14.52;3.95;;;;;;;16.48;27.12;100972.56;5026703;28;20054;-67
2022/03/21 07:30:18;;;;;;;14.95;3.90;;;;;;;17.20;25.80;100966.44;5010031;28;20133;-67
2022/03/21 07:32:45;;;;;;;16.83;3.78;;;;;;;18.84;23.63;100951.09;5010032;28;20049;-68
2022/03/21 07:35:12;;;;;;;13.65;3.78;;;;;;;22.31;20.21;100971.19;4993945;28;20034;-67
2022/03/21 07:37:42;;;;;;;14.07;4.63;;;;;;;25.79;16.19;100965.56;4978100;28;20446;-67
2022/03/21 07:40:11;;;;;;;12.40;4.15;;;;;;;28.74;13.02;100968.91;5009852;28;20136;-73
2022/03/21 07:42:38;;;;;;;12.18;4.18;;;;;;;31.21;11.06;100963.22;5010115;28;20052;-68
2022/03/21 07:47:51;;;;;;;14.68;4.25;;;;;;;35.04;7.95;100956.91;5010010;28;20096;-70
2022/03/21 07:50:19;;;;;;;13.90;4.60;;;;;;;36.36;7.16;100954.53;4993250;28;20050;-72
2022/03/21 07:52:46;;;;;;;16.50;4.68;;;;;;;37.75;6.07;100947.16;5009368;28;20060;-71
2022/03/21 07:55:12;;;;;;;12.93;4.47;;;;;;;38.77;5.49;100953.91;4977537;28;20046;-71
2022/03/21 07:57:38;;;;;;;19.95;5.30;;;;;;;39.62;4.93;100940.69;4977012;28;20056;-73
2022/03/21 08:00:05;;;;;;;12.85;4.80;;;;;;;40.44;4.49;100940.06;5009267;28;20133;-69
2022/03/21 08:02:39;;;;;;;21.02;4.40;;;;;;;40.87;4.29;100930.63;5000101;28;20038;-71
2022/03/21 08:05:05;;;;;;;23.27;5.05;;;;;;;41.22;4.11;100943.41;4989086;28;20510;-71
2022/03/21 08:07:32;;;;;;;15.82;3.97;;;;;;;41.44;3.66;100937.63;4978084;28;20576;-72
2022/03/21 08:09:58;;;;;;;14.07;4.40;;;;;;;41.73;3.24;100934.91;4981430;28;20084;-71
2022/03/21 08:12:24;;;;;;;14.98;3.90;;;;;;;42.05;3.48;100936.31;4980631;28;20573;-71
2022/03/21 08:14:51;;;;;;;13.65;4.93;;;;;;;42.68;3.22;100938.06;4999871;28;20041;-70
2022/03/21 08:17:18;;;;;;;21.80;4.53;;;;;;;43.37;2.64;100927.94;4970975;28;20050;-72
2022/03/21 08:19:44;;;;;;;19.13;4.55;;;;;;;43.70;2.56;100925.94;4983476;28;20048;-70
2022/03/21 08:22:10;;;;;;;17.48;4.50;;;;;;;43.72;2.57;100923.59;4988220;28;20066;-71
2022/03/21 08:24:36;;;;;;;16.70;5.03;;;;;;;44.01;2.15;100929.00;4979938;28;20069;-73
2022/03/21 08:27:05;;;;;;;16.77;4.15;;;;;;;44.33;2.22;100930.88;4998501;28;20486;-70
2022/03/21 08:29:31;;;;;;;14.38;4.15;;;;;;;44.88;1.62;100937.78;4988385;28;20153;-71
2022/03/21 08:31:57;;;;;;;15.38;3.97;;;;;;;44.95;1.67;100932.41;4970294;28;20489;-72
2022/03/21 08:34:23;;;;;;;11.98;4.00;;;;;;;45.27;1.61;100932.13;4971941;28;20041;-70
2022/03/21 08:36:49;;;;;;;14.73;3.85;;;;;;;45.40;1.62;100932.91;4986434;28;20077;-70
2022/03/21 08:39:15;;;;;;;16.65;4.60;;;;;;;45.80;1.28;100925.19;4973829;28;20029;-69
2022/03/21 08:41:41;;;;;;;19.70;4.28;;;;;;;46.19;1.09;100927.78;4954499;28;20033;-70
2022/03/21 08:44:07;;;;;;;19.05;7.40;;;;;;;46.46;1.18;100931.63;4979729;28;20053;-72
2022/03/21 08:46:33;;;;;;;12.30;4.10;;;;;;;46.37;1.10;100925.41;4966557;28;20042;-72
2022/03/21 08:51:44;;;;;;;20.00;5.57;;;;;;;46.69;1.23;100924.16;4998723;28;20038;-72
2022/03/21 08:54:10;;;;;;;19.88;10.95;;;;;;;46.97;0.80;100921.97;4989057;28;20046;-73
2022/03/21 08:56:36;;;;;;;16.52;5.47;;;;;;;47.02;0.76;100923.66;4972132;28;20050;-73
2022/03/21 08:59:02;;;;;;;27.20;4.40;;;;;;;47.18;0.59;100922.38;4988194;28;20092;-72
2022/03/21 09:01:28;;;;;;;13.30;4.05;;;;;;;46.62;0.62;100909.94;4989806;28;20513;-73
2022/03/21 09:03:55;;;;;;;15.55;3.85;;;;;;;46.83;0.85;100910.38;4989085;28;20069;-70
2022/03/21 09:06:21;;;;;;;16.80;4.28;;;;;;;46.86;0.64;100904.03;4988896;28;20051;-72
2022/03/21 09:08:50;;;;;;;13.55;4.13;;;;;;;47.18;0.36;100904.69;4972876;28;20506;-72
2022/03/21 09:11:18;;;;;;;;;;;;;;;47.47;0.32;100893.59;4990857;28;20525;-69
2022/03/21 09:13:45;;;;;;;12.98;3.97;;;;;;;47.39;0.38;100900.31;4972755;28;19928;-71
2022/03/21 09:16:13;;;;;;;14.27;3.60;;;;;;;47.54;0.44;100893.72;4990676;28;20053;-72
2022/03/21 09:18:42;;;;;;;12.88;4.40;;;;;;;47.48;0.19;100895.25;5004631;28;20394;-73
2022/03/21 09:21:09;;;;;;;15.40;4.00;;;;;;;47.36;0.40;100891.78;4979272;28;20495;-70
2022/03/21 09:23:36;;;;;;;17.05;4.07;;;;;;;47.37;0.54;100894.22;4980166;28;20045;-71
2022/03/21 09:26:04;;;;;;;10.23;3.90;;;;;;;47.54;0.04;100884.47;4969345;28;20470;-70
2022/03/21 09:28:33;;;;;;;20.58;4.03;;;;;;;47.45;0.54;100892.34;4996628;28;20038;-71
2022/03/21 09:30:59;;;;;;;18.35;4.03;;;;;;;47.22;0.51;100888.72;4985599;28;20050;-70
2022/03/21 09:33:28;;;;;;;17.15;3.45;;;;;;;47.32;0.25;100888.06;4990227;28;20046;-70
2022/03/21 09:35:53;;;;;;;10.15;3.38;;;;;;;47.20;0.18;100885.41;4985434;28;20197;-72
2022/03/21 09:38:19;;;;;;;20.58;3.70;;;;;;;47.39;0.25;100876.97;4991429;28;20140;-72
2022/03/21 09:40:46;;;;;;;15.73;3.80;;;;;;;47.29;0.11;100888.81;5000389;28;20051;-72
2022/03/21 09:43:13;;;;;;;16.52;3.92;;;;;;;47.31;0.08;100887.28;4989673;28;20042;-71
2022/03/21 09:45:40;;;;;;;17.67;5.18;;;;;;;47.62;0.00;100880.63;4996047;28;20569;-71
2022/03/21 09:48:11;;;;;;;10.90;3.38;;;;;;;47.76;0.27;100886.47;4985671;28;20108;-70
2022/03/21 09:50:42;;;;;;;16.50;3.75;;;;;;;47.88;0.00;100871.34;5011099;28;20142;-70
2022/03/21 09:53:10;;;;;;;11.48;3.33;;;;;;;47.86;0.00;100883.00;4995142;28;20034;-70
2022/03/21 09:55:37;;;;;;;12.52;4.30;;;;;;;47.64;0.19;100866.97;5011539;28;20061;-70
2022/03/21 09:58:03;;;;;;;19.88;3.80;;;;;;;47.81;0.16;100871.25;5012583;28;20048;-71
2022/03/21 10:00:29;;;;;;;12.05;3.17;;;;;;;47.96;0.17;100870.31;4977057;28;20045;-71
2022/03/21 10:02:58;;;;;;;14.32;3.53;;;;;;;47.99;0.00;100875.19;4959680;28;20213;-70
2022/03/21 10:05:33;;;;;;;21.20;4.47;;;;;;;48.05;0.11;100868.84;4994652;28;20073;-69
2022/03/21 10:08:29;;;;;;;14.48;3.55;;;;;;;48.40;0.00;100875.03;5010515;28;20042;-70
2022/03/21 10:10:59;;;;;;;19.33;3.70;;;;;;;48.38;0.00;100868.16;4978451;28;20188;-70
2022/03/21 10:13:36;;;;;;;14.27;3.58;;;;;;;47.72;0.00;100868.69;4994139;28;20065;-70
2022/03/21 10:16:16;;;;;;;11.77;4.38;;;;;;;47.69;0.04;100871.47;5010487;28;20041;-69
2022/03/21 10:18:54;;;;;;;11.98;3.92;;;;;;;47.42;0.21;100871.41;4994379;28;20042;-70
2022/03/21 10:21:22;;;;;;;13.40;3.72;;;;;;;47.76;0.00;100874.38;5011313;28;20157;-69
2022/03/21 10:24:07;;;;;;;16.33;4.00;;;;;;;47.73;0.00;100866.69;4994963;28;20125;-70
2022/03/21 10:26:36;;;;;;;8.07;3.15;;;;;;;47.56;0.00;100865.97;4993907;28;20564;-70
2022/03/21 10:29:08;;;;;;;10.73;3.35;;;;;;;47.75;0.00;100859.47;5010612;28;20115;-70
2022/03/21 10:31:45;;;;;;;15.82;3.95;;;;;;;47.63;0.05;100856.88;4994290;28;20042;-70
2022/03/21 10:34:16;;;;;;;8.32;2.90;;;;;;;47.51;0.00;100849.44;5010696;28;20564;-69
2022/03/21 10:37:05;;;;;;;11.10;3.00;;;;;;;47.71;0.00;100855.81;4990830;28;20054;-70
2022/03/21 10:39:38;;;;;;;13.68;3.42;;;;;;;47.69;0.00;100863.03;4991799;28;20048;-72
2022/03/21 10:42:06;;;;;;;15.35;3.38;;;;;;;47.70;0.00;100854.19;4991576;28;20560;-70
2022/03/21 10:44:33;;;;;;;10.55;3.17;;;;;;;47.31;0.01;100847.88;4974851;28;20495;-70
2022/03/21 10:47:05;;;;;;;16.20;3.30;;;;;;;46.66;0.00;100845.31;4978594;28;20046;-72
2022/03/21 10:49:34;;;;;;;18.63;3.35;;;;;;;46.04;0.30;100852.75;4971437;28;20047;-71
2022/03/21 10:52:01;;;;;;;16.05;3.33;;;;;;;45.80;0.28;100849.34;4971631;28;20053;-71
2022/03/21 10:54:49;;;;;;;11.82;3.30;;;;;;;46.02;0.32;100854.31;4955003;28;20051;-71
2022/03/21 10:57:34;;;;;;;12.43;3.57;;;;;;;45.99;0.75;100855.88;4971747;28;20051;-76
2022/03/21 11:00:20;;;;;;;16.60;3.30;;;;;;;45.99;0.20;100858.69;4986008;28;20557;-72
2022/03/21 11:03:05;;;;;;;14.77;3.80;;;;;;;45.78;0.43;100837.69;4973321;28;20050;-75
2022/03/21 11:05:34;;;;;;;12.52;3.22;;;;;;;45.75;0.43;100841.16;4984621;28;20142;-70
2022/03/21 11:08:00;;;;;;;;;;;;;;;45.30;0.61;100852.03;5006208;28;20096;-70
2022/03/21 11:10:27;;;;;;;12.27;3.30;;;;;;;44.94;0.62;100839.00;4973639;28;19925;-70
2022/03/21 11:12:57;;;;;;;11.05;3.42;;;;;;;44.93;0.74;100845.81;4957566;28;20046;-71
2022/03/21 11:15:24;;;;;;;14.73;3.45;;;;;;;44.59;0.83;100835.19;5006042;28;20085;-71
2022/03/21 11:17:51;;;;;;;10.50;3.58;;;;;;;44.61;0.55;100839.25;4973993;28;20050;-71
2022/03/21 11:20:16;;;;;;;11.27;3.03;;;;;;;44.27;0.76;100834.22;4990218;28;20043;-71
2022/03/21 11:22:43;;;;;;;12.77;3.63;;;;;;;43.98;0.78;100825.28;4990090;28;20405;-71
2022/03/21 11:25:14;;;;;;;9.98;3.30;;;;;;;43.53;1.21;100825.41;5006221;28;20073;-72
2022/03/21 11:28:05;;;;;;;13.85;3.28;;;;;;;43.23;1.09;100837.91;5006872;28;20098;-69
2022/03/21 11:30:55;;;;;;;9.40;3.33;;;;;;;43.09;1.26;100838.22;5006579;28;20058;-70
2022/03/21 11:33:23;;;;;;;19.98;3.50;;;;;;;43.28;1.33;100832.09;5006158;28;20054;-69
2022/03/21 11:35:59;;;;;;;14.10;3.60;;;;;;;43.26;1.44;100823.22;4972049;28;20074;-70
2022/03/21 11:38:27;;;;;;;19.98;4.18;;;;;;;43.47;1.28;100825.94;4983043;28;20701;-68
2022/03/21 11:41:10;;;;;;;14.40;3.25;;;;;;;42.76;1.32;100819.81;4952920;28;20412;-68
2022/03/21 11:43:41;;;;;;;15.05;4.22;;;;;;;42.05;1.66;100827.41;4983804;28;20047;-67
2022/03/21 11:46:49;;;;;;;11.85;4.00;;;;;;;40.76;2.47;100823.41;4966868;28;20047;-69
2022/03/21 11:49:19;;;;;;;14.27;4.50;;;;;;;38.68;3.18;100814.94;4959613;28;20051;-68
2022/03/21 11:52:02;;;;;;;14.73;3.72;;;;;;;36.66;4.28;100805.41;4979442;28;20050;-68
2022/03/21 11:54:32;;;;;;;14.73;3.83;;;;;;;35.20;4.91;100823.03;4970401;28;20043;-66